createdAt,value
2022-08-21T00:00:20.339Z,4.33
2022-08-21T00:03:10.898Z,4.33
2022-08-21T00:05:58.155Z,4.17
2022-08-21T00:08:46.394Z,5.60
2022-08-21T00:11:36.014Z,5.00
2022-08-21T00:14:23.754Z,4.63
2022-08-21T00:17:10.918Z,4.50
2022-08-21T00:19:58.083Z,4.63
2022-08-21T00:22:46.244Z,4.50
2022-08-21T00:25:34.009Z,5.03
2022-08-21T00:28:21.497Z,4.90
2022-08-21T00:31:08.800Z,4.73
2022-08-21T00:34:00.539Z,4.53
2022-08-21T00:36:48.305Z,4.70
2022-08-21T00:39:35.548Z,5.17
2022-08-21T00:42:22.913Z,5.40
2022-08-21T00:45:10.906Z,4.43
2022-08-21T00:47:58.767Z,4.77
2022-08-21T00:51:08.428Z,5.23
2022-08-21T00:53:59.060Z,4.77
2022-08-21T00:56:50.099Z,5.53
2022-08-21T00:59:39.764Z,5.30
2022-08-21T01:02:27.407Z,5.53
2022-08-21T01:05:15.630Z,5.50
2022-08-21T01:08:03.586Z,6.30
2022-08-21T01:10:54.774Z,5.53
2022-08-21T01:13:47.635Z,6.27
2022-08-21T01:16:35.392Z,6.43
2022-08-21T01:19:24.395Z,6.30
2022-08-21T01:22:11.893Z,6.00
2022-08-21T01:24:59.347Z,6.70
2022-08-21T01:27:46.933Z,6.47
2022-08-21T01:30:35.943Z,5.97
2022-08-21T01:33:25.915Z,5.93
2022-08-21T01:36:13.093Z,5.93
2022-08-21T01:39:00.691Z,5.33
2022-08-21T01:41:48.032Z,6.30
2022-08-21T01:44:35.352Z,5.90
2022-08-21T01:47:22.612Z,6.23
2022-08-21T01:50:13.371Z,5.93
2022-08-21T01:53:00.826Z,5.53
2022-08-21T01:55:48.174Z,5.33
2022-08-21T01:58:35.673Z,5.70
2022-08-21T02:01:23.187Z,5.83
2022-08-21T02:04:11.504Z,5.73
2022-08-21T02:06:59.109Z,5.93
2022-08-21T02:09:46.330Z,5.77
2022-08-21T02:12:33.755Z,6.07
2022-08-21T02:15:23.640Z,6.30
2022-08-21T02:18:11.423Z,6.47
2022-08-21T02:20:58.655Z,5.80
2022-08-21T02:23:46.248Z,5.93
2022-08-21T02:26:33.745Z,5.23
2022-08-21T02:29:21.022Z,5.30
2022-08-21T02:32:08.500Z,5.40
2022-08-21T02:34:55.761Z,5.90
2022-08-21T02:37:49.970Z,5.30
2022-08-21T02:40:39.334Z,5.73
2022-08-21T02:43:31.234Z,5.67
2022-08-21T02:46:20.648Z,6.27
2022-08-21T02:49:07.975Z,5.60
2022-08-21T02:51:55.306Z,6.07
2022-08-21T02:54:42.752Z,5.80
2022-08-21T02:57:29.938Z,5.30
2022-08-21T03:00:17.497Z,5.97
2022-08-21T03:03:05.668Z,6.80
2022-08-21T03:05:52.962Z,6.17
2022-08-21T03:08:40.320Z,6.00
2022-08-21T03:11:27.559Z,6.63
2022-08-21T03:14:17.119Z,6.07
2022-08-21T03:17:04.501Z,5.97
2022-08-21T03:19:51.656Z,6.40
2022-08-21T03:22:40.144Z,6.57
2022-08-21T03:25:35.672Z,6.60
2022-08-21T03:28:28.512Z,8.07
2022-08-21T03:31:15.870Z,8.10
2022-08-21T03:34:03.094Z,8.03
2022-08-21T03:36:50.556Z,8.53
2022-08-21T03:39:37.954Z,9.00
2022-08-21T03:42:25.626Z,9.43
2022-08-21T03:45:12.847Z,9.17
2022-08-21T03:48:03.428Z,9.43
2022-08-21T03:50:53.358Z,9.83
2022-08-21T03:53:40.852Z,9.83
2022-08-21T03:56:28.137Z,9.40
2022-08-21T03:59:15.478Z,8.80
2022-08-21T04:02:05.329Z,8.90
2022-08-21T04:04:52.681Z,9.03
2022-08-21T04:07:40.589Z,8.40
2022-08-21T04:10:29.852Z,8.77
2022-08-21T04:13:17.487Z,7.83
2022-08-21T04:16:05.464Z,8.37
2022-08-21T04:18:53.382Z,8.43
2022-08-21T04:21:43.687Z,8.20
2022-08-21T04:24:34.181Z,6.93
2022-08-21T04:27:21.408Z,7.50
2022-08-21T04:30:10.544Z,7.73
2022-08-21T04:32:59.210Z,7.60
2022-08-21T04:35:46.531Z,7.03
2022-08-21T04:38:37.424Z,6.73
2022-08-21T04:41:28.067Z,7.07
2022-08-21T04:44:18.097Z,6.27
2022-08-21T04:47:06.830Z,6.03
2022-08-21T04:49:53.996Z,6.17
2022-08-21T04:52:41.555Z,5.67
2022-08-21T04:55:29.380Z,6.20
2022-08-21T04:58:18.639Z,6.30
2022-08-21T05:01:08.545Z,5.87
2022-08-21T05:03:57.863Z,5.87
2022-08-21T05:06:48.086Z,5.37
2022-08-21T05:09:35.638Z,5.33
2022-08-21T05:12:23.135Z,4.57
2022-08-21T05:15:13.605Z,5.00
2022-08-21T05:18:01.381Z,4.97
2022-08-21T05:20:49.435Z,4.53
2022-08-21T05:23:36.947Z,4.77
2022-08-21T05:26:24.295Z,5.10
2022-08-21T05:29:12.326Z,4.83
2022-08-21T05:32:00.407Z,4.63
2022-08-21T05:34:47.774Z,4.70
2022-08-21T05:37:35.268Z,4.80
2022-08-21T05:40:23.542Z,4.83
2022-08-21T05:43:10.788Z,4.77
2022-08-21T05:45:58.055Z,4.40
2022-08-21T05:48:47.789Z,4.40
2022-08-21T05:51:36.320Z,4.13
2022-08-21T05:54:23.598Z,3.90
2022-08-21T05:57:13.835Z,3.77
2022-08-21T06:00:04.560Z,3.77
2022-08-21T06:03:01.041Z,3.70
2022-08-21T06:05:52.072Z,3.57
2022-08-21T06:08:39.415Z,3.27
2022-08-21T06:11:28.973Z,3.50
2022-08-21T06:14:17.532Z,3.37
2022-08-21T06:17:10.490Z,3.30
2022-08-21T06:19:58.565Z,3.30
2022-08-21T06:22:45.943Z,3.40
2022-08-21T06:25:33.470Z,3.38
2022-08-21T06:28:20.996Z,3.30
2022-08-21T06:31:13.478Z,3.33
2022-08-21T06:34:01.017Z,3.60
2022-08-21T06:36:48.380Z,3.20
2022-08-21T06:39:36.280Z,3.38
2022-08-21T06:42:28.007Z,2.88
2022-08-21T06:45:16.186Z,3.03
2022-08-21T06:48:03.992Z,2.83
2022-08-21T06:50:51.617Z,2.60
2022-08-21T06:53:38.989Z,2.90
2022-08-21T06:56:29.023Z,3.00
2022-08-21T06:59:16.410Z,2.33
2022-08-21T07:02:04.071Z,2.60
2022-08-21T07:04:51.915Z,2.30
2022-08-21T07:07:41.906Z,2.60
2022-08-21T07:10:29.241Z,1.83
2022-08-21T07:13:17.237Z,1.90
2022-08-21T07:16:04.782Z,2.40
2022-08-21T07:18:51.946Z,2.33
2022-08-21T07:21:39.300Z,2.42
2022-08-21T07:24:26.689Z,2.33
2022-08-21T07:27:19.885Z,2.03
2022-08-21T07:30:07.926Z,2.17
2022-08-21T07:32:55.575Z,2.17
2022-08-21T07:35:42.979Z,1.83
2022-08-21T07:38:30.262Z,2.10
2022-08-21T07:41:20.422Z,1.83
2022-08-21T07:44:07.777Z,1.70
2022-08-21T07:46:54.988Z,1.73
2022-08-21T07:49:42.292Z,2.17
2022-08-21T07:52:31.279Z,2.20
2022-08-21T07:55:21.379Z,1.80
2022-08-21T07:58:08.847Z,1.95
2022-08-21T08:00:56.452Z,1.92
2022-08-21T08:03:44.239Z,1.65
2022-08-21T08:06:34.631Z,1.77
2022-08-21T08:09:21.835Z,1.90
2022-08-21T08:12:09.490Z,1.85
2022-08-21T08:15:01.342Z,1.70
2022-08-21T08:17:49.420Z,1.45
2022-08-21T08:20:36.910Z,2.00
2022-08-21T08:23:24.447Z,1.70
2022-08-21T08:26:12.014Z,1.70
2022-08-21T08:28:59.450Z,1.85
2022-08-21T08:31:49.211Z,1.70
2022-08-21T08:34:38.021Z,2.10
2022-08-21T08:37:27.778Z,1.75
2022-08-21T08:40:30.239Z,1.85
2022-08-21T08:43:17.567Z,1.80
2022-08-21T08:46:19.815Z,1.95
2022-08-21T08:49:38.371Z,1.60
2022-08-21T08:52:37.218Z,1.60
2022-08-21T08:55:38.034Z,1.75
2022-08-21T08:58:32.543Z,5.78
2022-08-21T09:01:23.505Z,4.28
2022-08-21T09:04:14.394Z,1.70
2022-08-21T09:07:25.699Z,1.60
2022-08-21T09:10:23.323Z,2.00
2022-08-21T09:13:13.503Z,2.08
2022-08-21T09:16:16.448Z,1.92
2022-08-21T09:19:25.076Z,1.88
2022-08-21T09:22:23.126Z,1.95
2022-08-21T09:25:18.204Z,2.38
2022-08-21T09:28:09.719Z,2.28
2022-08-21T09:30:59.030Z,1.75
2022-08-21T09:33:46.395Z,1.80
2022-08-21T09:36:44.464Z,1.67
2022-08-21T09:39:41.901Z,1.80
2022-08-21T09:42:33.658Z,2.10
2022-08-21T09:45:21.025Z,2.78
2022-08-21T09:48:13.937Z,2.80
2022-08-21T09:51:10.132Z,2.20
2022-08-21T09:54:06.366Z,2.15
2022-08-21T09:57:18.261Z,2.00
2022-08-21T10:00:33.117Z,2.20
2022-08-21T10:03:22.617Z,1.65
2022-08-21T10:06:11.913Z,2.60
2022-08-21T10:09:19.848Z,2.23
2022-08-21T10:12:17.788Z,2.10
2022-08-21T10:15:11.245Z,2.60
2022-08-21T10:18:23.132Z,2.60
2022-08-21T10:21:35.397Z,2.10
2022-08-21T10:24:58.354Z,2.07
2022-08-21T10:27:54.904Z,1.80
2022-08-21T10:30:44.936Z,2.17
2022-08-21T10:33:45.862Z,2.07
2022-08-21T10:37:11.497Z,1.80
2022-08-21T10:40:10.976Z,2.03
2022-08-21T10:43:26.792Z,2.40
2022-08-21T10:46:31.868Z,1.63
2022-08-21T10:49:38.080Z,1.90
2022-08-21T10:53:03.526Z,1.90
2022-08-21T10:56:01.103Z,1.60
2022-08-21T10:59:11.361Z,1.50
2022-08-21T11:02:04.962Z,1.73
2022-08-21T11:05:00.129Z,1.83
2022-08-21T11:08:24.666Z,2.30
2022-08-21T11:11:21.676Z,1.70
2022-08-21T11:14:49.787Z,1.27
2022-08-21T11:17:45.220Z,1.80
2022-08-21T11:20:50.720Z,1.87
2022-08-21T11:23:42.656Z,1.80
2022-08-21T11:27:04.081Z,1.63
2022-08-21T11:29:55.283Z,1.80
2022-08-21T11:32:42.520Z,2.03
2022-08-21T11:35:48.202Z,1.87
2022-08-21T11:38:40.017Z,1.63
2022-08-21T11:41:40.150Z,4.87
2022-08-21T11:44:38.827Z,3.13
2022-08-21T11:47:45.553Z,1.30
2022-08-21T11:50:35.334Z,7.07
2022-08-21T11:54:12.598Z,2.57
2022-08-21T11:57:16.051Z,2.77
2022-08-21T12:00:19.278Z,7.90
2022-08-21T12:03:13.386Z,3.63
2022-08-21T12:06:08.720Z,2.77
2022-08-21T12:09:06.204Z,6.13
2022-08-21T12:12:06.315Z,3.80
2022-08-21T12:15:10.947Z,2.67
2022-08-21T12:18:02.853Z,2.03
2022-08-21T12:21:22.137Z,2.00
2022-08-21T12:24:15.375Z,2.00
2022-08-21T12:27:17.803Z,5.70
2022-08-21T12:30:19.736Z,2.00
2022-08-21T12:33:21.642Z,3.00
2022-08-21T12:36:16.276Z,4.30
2022-08-21T12:39:07.654Z,2.33
2022-08-21T12:42:16.791Z,2.20
2022-08-21T12:45:12.738Z,1.60
2022-08-21T12:48:07.523Z,1.30
2022-08-21T12:51:01.624Z,2.50
2022-08-21T12:53:54.736Z,1.80
2022-08-21T12:56:42.199Z,1.53
2022-08-21T12:59:39.464Z,1.30
2022-08-21T13:02:41.300Z,1.73
2022-08-21T13:05:36.911Z,1.60
2022-08-21T13:08:26.354Z,2.50
2022-08-21T13:11:17.396Z,2.03
2022-08-21T13:14:32.404Z,1.60
2022-08-21T13:17:23.629Z,1.43
2022-08-21T13:20:26.072Z,1.40
2022-08-21T13:23:26.937Z,1.73
2022-08-21T13:26:22.627Z,1.60
2022-08-21T13:29:16.182Z,1.60
2022-08-21T13:32:07.980Z,1.50
2022-08-21T13:34:55.514Z,2.20
2022-08-21T13:37:43.703Z,2.00
2022-08-21T13:40:33.721Z,1.60
2022-08-21T13:43:23.600Z,2.20
2022-08-21T13:46:13.229Z,1.23
2022-08-21T13:49:01.734Z,1.60
2022-08-21T13:51:49.058Z,1.47
2022-08-21T13:54:41.775Z,2.00
2022-08-21T13:57:34.683Z,1.40
2022-08-21T14:00:28.767Z,2.40
2022-08-21T14:03:26.742Z,2.20
2022-08-21T14:06:18.354Z,1.63
2022-08-21T14:09:11.364Z,1.40
2022-08-21T14:12:01.239Z,1.50
2022-08-21T14:14:48.518Z,1.40
2022-08-21T14:17:39.270Z,1.50
2022-08-21T14:20:32.655Z,1.70
2022-08-21T14:23:27.469Z,1.90
2022-08-21T14:26:18.467Z,1.83
2022-08-21T14:29:09.522Z,2.00
2022-08-21T14:32:00.020Z,1.40
2022-08-21T14:34:47.566Z,1.97
2022-08-21T14:37:35.240Z,2.40
2022-08-21T14:40:24.458Z,1.60
2022-08-21T14:43:11.647Z,3.40
2022-08-21T14:45:58.865Z,2.53
2022-08-21T14:48:47.700Z,2.20
2022-08-21T14:51:34.876Z,2.20
2022-08-21T14:54:23.209Z,1.77
2022-08-21T14:57:18.076Z,2.03
2022-08-21T15:00:06.380Z,2.03
2022-08-21T15:02:53.683Z,3.27
2022-08-21T15:05:40.869Z,2.53
2022-08-21T15:08:28.106Z,1.80
2022-08-21T15:11:41.343Z,1.90
2022-08-21T15:14:30.203Z,2.33
2022-08-21T15:17:17.549Z,2.50
2022-08-21T15:20:06.997Z,1.63
2022-08-21T15:22:54.142Z,2.60
2022-08-21T15:25:43.703Z,1.97
2022-08-21T15:28:31.625Z,2.37
2022-08-21T15:31:20.524Z,1.60
2022-08-21T15:34:10.149Z,2.10
2022-08-21T15:36:59.056Z,1.73
2022-08-21T15:39:52.280Z,1.87
2022-08-21T15:42:53.900Z,2.50
2022-08-21T15:45:41.119Z,2.80
2022-08-21T15:48:29.128Z,2.43
2022-08-21T15:51:17.641Z,2.47
2022-08-21T15:54:05.159Z,3.20
2022-08-21T15:56:52.708Z,4.03
2022-08-21T15:59:45.752Z,2.27
2022-08-21T16:02:33.340Z,1.97
2022-08-21T16:05:21.831Z,2.77
2022-08-21T16:08:10.893Z,2.27
2022-08-21T16:10:58.182Z,1.60
2022-08-21T16:13:51.881Z,1.70
2022-08-21T16:16:45.609Z,1.30
2022-08-21T16:19:33.159Z,1.83
2022-08-21T16:22:20.396Z,2.10
2022-08-21T16:25:08.169Z,2.20
2022-08-21T16:27:59.425Z,1.90
2022-08-21T16:30:48.828Z,2.57
2022-08-21T16:33:39.608Z,1.80
2022-08-21T16:36:28.803Z,1.50
2022-08-21T16:39:16.567Z,2.77
2022-08-21T16:42:03.985Z,1.37
2022-08-21T16:44:51.688Z,2.70
2022-08-21T16:47:39.149Z,2.93
2022-08-21T16:50:26.535Z,2.20
2022-08-21T16:53:13.768Z,3.30
2022-08-21T16:56:01.870Z,1.90
2022-08-21T16:58:51.312Z,1.83
2022-08-21T17:01:39.437Z,1.60
2022-08-21T17:04:28.495Z,1.70
2022-08-21T17:07:28.370Z,1.80
2022-08-21T17:10:16.394Z,1.70
2022-08-21T17:13:09.433Z,1.60
2022-08-21T17:16:00.159Z,2.03
2022-08-21T17:18:47.852Z,1.73
2022-08-21T17:21:45.703Z,1.20
2022-08-21T17:24:34.126Z,1.20
2022-08-21T17:27:26.618Z,1.60
2022-08-21T17:30:15.718Z,2.07
2022-08-21T17:33:03.093Z,1.10
2022-08-21T17:35:50.500Z,1.40
2022-08-21T17:38:37.717Z,1.70
2022-08-21T17:41:26.810Z,1.60
2022-08-21T17:44:18.610Z,1.40
2022-08-21T17:47:07.148Z,1.60
2022-08-21T17:49:54.347Z,1.50
2022-08-21T17:52:44.397Z,1.83
2022-08-21T17:55:31.834Z,1.60
2022-08-21T17:58:19.443Z,1.60
2022-08-21T18:01:13.045Z,1.37
2022-08-21T18:04:00.760Z,1.00
2022-08-21T18:06:47.999Z,1.90
2022-08-21T18:09:35.337Z,1.93
2022-08-21T18:12:22.571Z,1.60
2022-08-21T18:15:14.833Z,1.90
2022-08-21T18:18:02.927Z,1.90
2022-08-21T18:20:51.876Z,1.93
2022-08-21T18:23:43.906Z,1.73
2022-08-21T18:26:36.589Z,2.20
2022-08-21T18:29:24.112Z,1.70
2022-08-21T18:32:30.532Z,1.20
2022-08-21T18:35:22.900Z,1.10
2022-08-21T18:38:13.573Z,1.60
2022-08-21T18:41:01.355Z,1.70
2022-08-21T18:43:57.544Z,1.50
2022-08-21T18:46:50.645Z,1.50
2022-08-21T18:49:38.225Z,1.60
2022-08-21T18:52:28.304Z,1.30
2022-08-21T18:55:24.511Z,1.50
2022-08-21T18:58:16.665Z,1.60
2022-08-21T19:01:07.072Z,1.20
2022-08-21T19:03:55.181Z,1.43
2022-08-21T19:06:46.389Z,1.50
2022-08-21T19:09:33.879Z,1.60
2022-08-21T19:12:24.260Z,1.90
2022-08-21T19:15:20.157Z,1.40
2022-08-21T19:18:10.854Z,1.40
2022-08-21T19:20:58.860Z,1.53
2022-08-21T19:23:52.717Z,1.40
2022-08-21T19:26:42.927Z,1.23
2022-08-21T19:29:35.045Z,1.90
2022-08-21T19:32:23.064Z,1.67
2022-08-21T19:35:15.768Z,1.63
2022-08-21T19:38:03.223Z,1.97
2022-08-21T19:40:52.670Z,1.50
2022-08-21T19:43:47.347Z,1.80
2022-08-21T19:46:36.847Z,1.67
2022-08-21T19:49:29.413Z,1.80
2022-08-21T19:52:20.773Z,1.80
2022-08-21T19:55:10.834Z,1.77
2022-08-21T19:57:58.415Z,2.10
2022-08-21T20:00:48.762Z,1.63
2022-08-21T20:03:37.507Z,1.47
2022-08-21T20:06:26.670Z,1.50
2022-08-21T20:09:14.959Z,1.43
2022-08-21T20:12:09.877Z,1.67
2022-08-21T20:15:01.892Z,1.67
2022-08-21T20:17:50.687Z,1.97
2022-08-21T20:20:39.108Z,1.50
2022-08-21T20:23:30.617Z,1.80
2022-08-21T20:26:22.985Z,1.70
2022-08-21T20:29:13.655Z,1.70
2022-08-21T20:32:04.608Z,1.70
2022-08-21T20:34:59.418Z,1.60
2022-08-21T20:37:58.616Z,1.87
2022-08-21T20:40:50.211Z,1.83
2022-08-21T20:43:38.522Z,1.73
2022-08-21T20:46:34.181Z,1.80
2022-08-21T20:49:28.624Z,1.60
2022-08-21T20:52:17.936Z,2.00
2022-08-21T20:55:11.780Z,1.70
2022-08-21T20:58:04.378Z,1.60
2022-08-21T21:00:52.056Z,1.60
2022-08-21T21:03:50.674Z,1.80
2022-08-21T21:06:42.608Z,2.00
2022-08-21T21:09:42.707Z,1.70
2022-08-21T21:12:36.413Z,1.77
2022-08-21T21:15:44.159Z,1.70
2022-08-21T21:18:33.126Z,1.97
2022-08-21T21:22:36.945Z,1.77
